createdAt,value
2023-03-26T00:02:18.482Z,67.65
2023-03-26T00:04:55.004Z,67.71
2023-03-26T00:07:31.272Z,67.80
2023-03-26T00:10:09.440Z,67.96
2023-03-26T00:12:45.947Z,68.08
2023-03-26T00:15:22.805Z,68.03
2023-03-26T00:18:00.775Z,68.14
2023-03-26T00:20:38.528Z,68.14
2023-03-26T00:23:14.852Z,68.10
2023-03-26T00:25:52.208Z,68.13
2023-03-26T00:28:29.915Z,68.14
2023-03-26T00:31:09.620Z,68.19
2023-03-26T00:33:47.815Z,68.30
2023-03-26T00:36:27.015Z,68.34
2023-03-26T00:39:05.889Z,68.40
2023-03-26T00:41:43.758Z,68.43
2023-03-26T00:44:20.044Z,68.59
2023-03-26T00:46:58.035Z,68.64
2023-03-26T00:49:34.842Z,68.63
2023-03-26T00:52:11.312Z,68.72
2023-03-26T00:54:48.323Z,68.77
2023-03-26T00:57:35.782Z,68.80
2023-03-26T01:06:02.821Z,68.80
2023-03-26T01:08:45.450Z,69.01
2023-03-26T01:11:26.903Z,69.11
2023-03-26T01:14:10.326Z,69.20
2023-03-26T01:16:52.171Z,69.30
2023-03-26T01:19:38.608Z,69.41
2023-03-26T01:22:20.759Z,69.55
2023-03-26T01:24:57.448Z,69.48
2023-03-26T01:27:44.489Z,69.58
2023-03-26T01:30:33.786Z,69.68
2023-03-26T01:33:22.017Z,69.83
2023-03-26T01:36:06.625Z,69.93
2023-03-26T01:39:00.620Z,69.88
2023-03-26T01:41:48.048Z,69.85
2023-03-26T01:44:32.854Z,69.90
2023-03-26T01:47:11.139Z,69.92
2023-03-26T01:49:47.362Z,69.96
2023-03-26T01:52:26.394Z,70.13
2023-03-26T01:55:03.355Z,70.21
2023-03-26T01:57:59.798Z,70.25
2023-03-26T02:00:43.710Z,70.41
2023-03-26T02:03:31.652Z,70.70
2023-03-26T02:06:18.007Z,70.71
2023-03-26T02:09:01.063Z,71.00
2023-03-26T02:11:39.554Z,71.04
2023-03-26T02:14:18.558Z,71.75
2023-03-26T02:16:56.589Z,71.44
2023-03-26T02:19:32.976Z,72.07
2023-03-26T02:22:11.359Z,71.68
2023-03-26T02:24:48.422Z,71.86
2023-03-26T02:27:24.812Z,72.08
2023-03-26T02:30:01.254Z,72.29
2023-03-26T02:32:38.922Z,72.26
2023-03-26T02:35:16.955Z,72.68
2023-03-26T02:37:53.411Z,72.93
2023-03-26T02:40:30.763Z,73.43
2023-03-26T02:43:07.696Z,73.69
2023-03-26T02:45:44.571Z,73.93
2023-03-26T02:49:08.440Z,73.96
2023-03-26T02:51:45.189Z,74.03
2023-03-26T02:54:32.654Z,74.15
2023-03-26T02:57:20.611Z,73.63
2023-03-26T03:00:17.469Z,73.87
2023-03-26T03:03:25.899Z,73.88
2023-03-26T03:06:23.355Z,74.11
2023-03-26T03:09:02.921Z,74.02
2023-03-26T03:11:46.010Z,74.42
2023-03-26T03:14:22.770Z,74.45
2023-03-26T03:16:59.035Z,74.57
2023-03-26T03:19:35.435Z,74.57
2023-03-26T03:22:11.818Z,74.73
2023-03-26T03:24:49.344Z,74.68
2023-03-26T03:27:26.239Z,74.81
2023-03-26T03:30:18.890Z,74.64
2023-03-26T03:32:58.526Z,74.94
2023-03-26T03:35:35.798Z,75.11
2023-03-26T03:38:13.217Z,74.93
2023-03-26T03:40:55.676Z,75.22
2023-03-26T03:43:33.884Z,75.33
2023-03-26T03:46:16.201Z,75.29
2023-03-26T03:48:55.116Z,75.48
2023-03-26T03:51:36.353Z,75.73
2023-03-26T03:54:16.125Z,76.03
2023-03-26T03:56:55.284Z,75.93
2023-03-26T03:59:47.621Z,75.82
2023-03-26T04:02:30.590Z,75.91
2023-03-26T04:05:11.729Z,75.89
2023-03-26T04:07:52.891Z,75.83
2023-03-26T04:10:38.636Z,75.85
2023-03-26T04:13:21.674Z,76.16
2023-03-26T04:16:01.226Z,76.38
2023-03-26T04:18:39.204Z,76.30
2023-03-26T04:21:21.198Z,76.39
2023-03-26T04:23:57.640Z,76.58
2023-03-26T04:26:52.865Z,76.67
2023-03-26T04:29:38.376Z,76.46
2023-03-26T04:32:24.743Z,76.16
2023-03-26T04:35:04.248Z,76.43
2023-03-26T04:37:46.170Z,76.29
2023-03-26T04:40:34.792Z,76.46
2023-03-26T04:43:27.752Z,76.62
2023-03-26T04:46:10.646Z,76.62
2023-03-26T04:48:54.445Z,76.81
2023-03-26T04:51:42.046Z,76.87
2023-03-26T04:54:30.440Z,76.73
2023-03-26T04:57:21.436Z,76.55
2023-03-26T05:00:03.887Z,76.54
2023-03-26T05:02:42.955Z,76.65
2023-03-26T05:05:20.498Z,76.77
2023-03-26T05:07:57.917Z,76.77
2023-03-26T05:10:35.151Z,76.59
2023-03-26T05:13:14.930Z,76.67
2023-03-26T05:15:57.141Z,76.48
2023-03-26T05:18:41.720Z,76.19
2023-03-26T05:21:18.581Z,76.00
2023-03-26T05:23:55.017Z,75.88
2023-03-26T05:26:31.874Z,75.81
2023-03-26T05:29:08.728Z,75.69
2023-03-26T05:31:50.330Z,75.64
2023-03-26T05:34:27.350Z,75.57
2023-03-26T05:37:04.563Z,75.47
2023-03-26T05:40:02.151Z,74.69
2023-03-26T05:43:00.533Z,74.06
2023-03-26T05:46:27.438Z,73.06
2023-03-26T05:49:04.120Z,72.46
2023-03-26T05:51:42.997Z,72.20
2023-03-26T05:55:10.644Z,72.00
2023-03-26T05:58:05.537Z,72.00
2023-03-26T06:01:08.480Z,72.07
2023-03-26T06:04:33.170Z,72.05
2023-03-26T06:07:28.304Z,71.97
2023-03-26T06:10:23.976Z,72.05
2023-03-26T06:13:00.584Z,71.95
2023-03-26T06:15:37.092Z,70.38
2023-03-26T06:18:24.956Z,67.09
2023-03-26T06:21:20.463Z,65.22
2023-03-26T06:24:08.991Z,64.69
2023-03-26T06:26:54.393Z,64.43
2023-03-26T06:29:54.817Z,64.20
2023-03-26T06:32:57.634Z,64.42
2023-03-26T06:35:37.963Z,64.27
2023-03-26T06:38:14.899Z,63.19
2023-03-26T06:40:51.296Z,62.81
2023-03-26T06:43:37.630Z,62.97
2023-03-26T06:46:23.587Z,63.26
2023-03-26T06:49:18.508Z,63.20
2023-03-26T06:52:35.578Z,63.50
2023-03-26T06:55:31.514Z,63.86
2023-03-26T06:58:18.522Z,64.21
2023-03-26T07:01:54.086Z,64.66
2023-03-26T07:05:13.199Z,64.44
2023-03-26T07:08:08.698Z,63.99
2023-03-26T07:11:48.464Z,63.92
2023-03-26T07:15:11.543Z,63.98
2023-03-26T07:17:57.311Z,63.22
2023-03-26T07:20:39.862Z,62.21
2023-03-26T07:23:20.635Z,61.51
2023-03-26T07:27:02.807Z,61.36
2023-03-26T07:29:55.237Z,60.93
2023-03-26T07:33:04.135Z,60.56
2023-03-26T07:36:00.196Z,60.08
2023-03-26T07:39:24.120Z,58.02
2023-03-26T07:43:04.425Z,53.46
2023-03-26T07:45:59.261Z,50.99
2023-03-26T07:48:54.221Z,48.80
2023-03-26T07:52:18.846Z,45.94
2023-03-26T07:55:47.759Z,44.39
2023-03-26T07:59:34.565Z,42.53
2023-03-26T08:03:08.965Z,40.94
2023-03-26T08:06:16.640Z,39.80
2023-03-26T08:09:28.417Z,38.77
2023-03-26T08:12:41.154Z,38.67
2023-03-26T08:15:30.853Z,39.30
2023-03-26T08:18:27.636Z,39.65
2023-03-26T08:21:11.351Z,40.54
2023-03-26T08:24:01.766Z,40.24
2023-03-26T08:26:49.592Z,40.23
2023-03-26T08:29:39.979Z,41.01
2023-03-26T08:32:22.307Z,41.68
2023-03-26T08:35:00.285Z,41.97
2023-03-26T08:37:36.849Z,42.26
2023-03-26T08:40:24.553Z,41.95
2023-03-26T08:43:58.858Z,41.76
2023-03-26T08:47:14.553Z,42.56
2023-03-26T08:50:33.086Z,43.22
2023-03-26T08:54:11.129Z,44.13
2023-03-26T08:57:09.929Z,45.04
2023-03-26T09:00:40.937Z,45.36
2023-03-26T09:04:15.702Z,45.84
2023-03-26T09:07:28.221Z,46.07
2023-03-26T09:11:12.095Z,46.87
2023-03-26T09:14:44.400Z,47.62
2023-03-26T09:18:21.169Z,47.92
2023-03-26T09:22:01.000Z,48.19
2023-03-26T09:28:20.860Z,48.15
2023-03-26T09:31:41.301Z,47.72
2023-03-26T09:34:48.088Z,47.92
2023-03-26T09:37:56.731Z,48.33
2023-03-26T09:40:54.386Z,48.38
2023-03-26T09:44:42.595Z,48.53
2023-03-26T09:48:15.111Z,49.21
2023-03-26T09:51:08.755Z,49.72
2023-03-26T09:54:11.641Z,49.38
2023-03-26T09:57:07.778Z,49.45
2023-03-26T10:00:25.599Z,49.00
2023-03-26T10:03:30.768Z,48.89
2023-03-26T10:06:32.420Z,48.85
2023-03-26T10:09:37.273Z,48.89
2023-03-26T10:12:32.292Z,48.43
2023-03-26T10:15:37.139Z,48.32
2023-03-26T10:18:33.564Z,48.45
2023-03-26T10:21:17.648Z,48.53
2023-03-26T10:24:20.478Z,48.57
2023-03-26T10:27:23.048Z,48.60
2023-03-26T10:30:33.773Z,49.23
2023-03-26T10:33:31.933Z,49.08
2023-03-26T10:36:35.858Z,48.64
2023-03-26T10:39:48.965Z,48.62
2023-03-26T10:43:03.308Z,48.65
2023-03-26T10:46:00.099Z,47.97
2023-03-26T10:49:21.992Z,47.46
2023-03-26T10:52:03.615Z,47.58
2023-03-26T10:54:59.438Z,47.55
2023-03-26T10:57:50.460Z,47.60
2023-03-26T11:00:31.419Z,47.75
2023-03-26T11:03:52.103Z,47.61
2023-03-26T11:06:42.902Z,47.41
2023-03-26T11:09:42.467Z,46.98
2023-03-26T11:12:30.606Z,47.09
2023-03-26T11:15:28.152Z,47.25
2023-03-26T11:18:19.024Z,47.56
2023-03-26T11:21:18.854Z,47.76
2023-03-26T11:24:20.620Z,48.39
2023-03-26T11:27:15.992Z,48.07
2023-03-26T11:30:14.602Z,47.81
2023-03-26T11:32:57.048Z,47.51
2023-03-26T11:35:40.483Z,47.40
2023-03-26T11:38:28.094Z,47.48
2023-03-26T11:41:12.681Z,47.48
2023-03-26T11:44:07.670Z,47.77
2023-03-26T11:46:50.908Z,47.86
2023-03-26T11:49:30.844Z,47.75
2023-03-26T11:52:08.232Z,47.62
2023-03-26T11:54:50.656Z,47.82
2023-03-26T11:57:34.029Z,47.84
2023-03-26T12:00:21.144Z,48.23
2023-03-26T12:03:01.777Z,48.70
2023-03-26T12:05:59.122Z,49.82
2023-03-26T12:08:42.628Z,50.49
2023-03-26T12:11:32.188Z,51.09
2023-03-26T12:14:17.700Z,51.40
2023-03-26T12:17:09.201Z,51.72
2023-03-26T12:19:48.326Z,52.00
2023-03-26T12:22:38.382Z,51.60
2023-03-26T12:25:25.374Z,51.46
2023-03-26T12:28:07.524Z,51.55
2023-03-26T12:30:54.396Z,51.63
2023-03-26T12:33:35.018Z,51.36
2023-03-26T12:36:31.348Z,51.06
2023-03-26T12:40:10.778Z,50.93
2023-03-26T12:44:50.581Z,50.86
2023-03-26T12:45:43.803Z,50.34
2023-03-26T12:48:25.702Z,50.23
2023-03-26T12:51:26.988Z,50.07
2023-03-26T12:54:35.991Z,50.05
2023-03-26T12:57:26.491Z,50.13
2023-03-26T13:00:51.802Z,49.75
2023-03-26T13:03:52.909Z,49.56
2023-03-26T13:06:59.711Z,49.33
2023-03-26T13:10:25.346Z,49.12
2023-03-26T13:13:28.159Z,49.25
2023-03-26T13:16:14.551Z,49.21
2023-03-26T13:19:00.696Z,49.31
2023-03-26T13:21:57.892Z,48.79
2023-03-26T13:24:54.790Z,48.73
2023-03-26T13:27:50.687Z,47.98
2023-03-26T13:30:43.866Z,47.47
2023-03-26T13:33:44.928Z,47.27
2023-03-26T13:36:32.557Z,47.47
2023-03-26T13:39:30.879Z,47.33
2023-03-26T13:42:33.852Z,47.19
2023-03-26T13:45:34.449Z,47.30
2023-03-26T13:48:18.725Z,47.34
2023-03-26T13:51:06.420Z,47.35
2023-03-26T13:53:54.155Z,47.35
2023-03-26T13:56:41.485Z,47.49
2023-03-26T13:59:31.624Z,47.47
2023-03-26T14:02:18.480Z,47.55
2023-03-26T14:05:02.403Z,47.61
2023-03-26T14:07:48.199Z,47.36
2023-03-26T14:10:30.748Z,46.63
2023-03-26T14:13:17.460Z,45.90
2023-03-26T14:16:00.685Z,45.92
2023-03-26T14:18:49.368Z,45.79
2023-03-26T14:21:56.137Z,45.94
2023-03-26T14:25:02.572Z,46.12
2023-03-26T14:28:12.041Z,46.29
2023-03-26T14:31:23.684Z,46.52
2023-03-26T14:34:35.461Z,46.90
2023-03-26T14:37:51.726Z,47.11
2023-03-26T14:40:58.844Z,47.08
2023-03-26T14:44:48.901Z,46.82
2023-03-26T14:47:27.517Z,46.92
2023-03-26T14:51:03.039Z,46.79
2023-03-26T14:53:46.375Z,47.04
2023-03-26T15:01:03.901Z,46.99
2023-03-26T15:04:57.604Z,47.18
2023-03-26T15:08:21.958Z,47.34
2023-03-26T15:11:32.318Z,47.56
2023-03-26T15:14:46.269Z,47.55
2023-03-26T15:18:29.517Z,47.68
2023-03-26T15:22:07.798Z,47.84
2023-03-26T15:26:09.917Z,47.88
2023-03-26T15:29:44.028Z,48.16
2023-03-26T15:33:10.558Z,48.24
2023-03-26T15:36:38.693Z,48.33
2023-03-26T15:40:00.082Z,48.38
2023-03-26T15:42:54.528Z,48.44
2023-03-26T15:45:41.627Z,48.37
2023-03-26T15:48:56.475Z,48.60
2023-03-26T15:51:56.732Z,48.71
2023-03-26T15:54:47.449Z,49.25
2023-03-26T15:57:36.354Z,49.21
2023-03-26T16:00:30.449Z,49.57
2023-03-26T16:03:43.227Z,49.53
2023-03-26T16:06:46.624Z,49.60
2023-03-26T16:09:52.170Z,49.82
2023-03-26T16:12:56.047Z,49.90
2023-03-26T16:15:38.091Z,50.10
2023-03-26T16:18:37.833Z,50.29
2023-03-26T16:21:57.715Z,50.26
2023-03-26T16:24:41.273Z,50.48
2023-03-26T16:27:38.872Z,50.40
2023-03-26T16:30:33.721Z,50.31
2023-03-26T16:33:36.188Z,50.48
2023-03-26T16:36:35.909Z,50.49
2023-03-26T16:39:44.815Z,50.19
2023-03-26T16:42:43.224Z,50.34
2023-03-26T16:45:35.394Z,50.38
2023-03-26T16:48:35.090Z,50.54
2023-03-26T16:51:26.411Z,50.65
2023-03-26T16:54:18.878Z,50.72
2023-03-26T16:57:11.313Z,50.78
2023-03-26T17:00:24.466Z,51.04
2023-03-26T17:03:24.360Z,51.06
2023-03-26T17:06:53.447Z,51.16
2023-03-26T17:09:52.754Z,51.30
2023-03-26T17:12:42.994Z,51.81
2023-03-26T17:15:37.607Z,52.22
2023-03-26T17:18:46.284Z,52.20
2023-03-26T17:21:45.891Z,52.29
2023-03-26T17:24:43.435Z,52.51
2023-03-26T17:28:28.061Z,52.67
2023-03-26T17:31:18.834Z,52.98
2023-03-26T17:33:56.696Z,53.16
2023-03-26T17:36:56.487Z,53.44
2023-03-26T17:40:51.068Z,53.64
2023-03-26T17:43:51.247Z,53.88
2023-03-26T17:46:37.671Z,54.33
2023-03-26T17:49:29.087Z,54.82
2023-03-26T17:52:20.944Z,55.19
2023-03-26T17:55:00.684Z,55.47
2023-03-26T17:57:45.050Z,55.88
2023-03-26T18:00:29.285Z,56.30
2023-03-26T18:03:16.797Z,56.56
2023-03-26T18:05:58.999Z,56.72
2023-03-26T18:08:57.396Z,57.01
2023-03-26T18:12:40.969Z,56.52
2023-03-26T18:15:49.066Z,57.21
2023-03-26T18:18:33.508Z,57.79
2023-03-26T18:21:14.794Z,58.22
2023-03-26T18:23:54.409Z,58.58
2023-03-26T18:26:44.853Z,59.31
2023-03-26T18:29:29.830Z,59.92
2023-03-26T18:32:23.637Z,59.93
2023-03-26T18:35:17.144Z,60.19
2023-03-26T18:37:58.969Z,60.78
2023-03-26T18:40:45.784Z,61.24
2023-03-26T18:43:34.480Z,61.52
2023-03-26T18:46:16.186Z,61.43
2023-03-26T18:48:55.817Z,61.48
2023-03-26T18:51:43.200Z,61.82
2023-03-26T18:54:34.221Z,62.10
2023-03-26T18:57:27.330Z,62.55
2023-03-26T19:00:25.576Z,63.25
2023-03-26T19:03:12.180Z,63.19
2023-03-26T19:05:50.522Z,63.48
2023-03-26T19:08:30.513Z,63.49
2023-03-26T19:11:10.052Z,63.95
2023-03-26T19:13:51.735Z,63.97
2023-03-26T19:16:33.954Z,64.00
2023-03-26T19:19:17.961Z,63.25
2023-03-26T19:21:59.077Z,63.76
2023-03-26T19:24:37.517Z,64.15
2023-03-26T19:27:16.766Z,64.54
2023-03-26T19:29:55.220Z,64.53
2023-03-26T19:32:36.777Z,64.61
2023-03-26T19:35:27.945Z,64.72
2023-03-26T19:38:13.836Z,64.82
2023-03-26T19:40:53.223Z,64.69
2023-03-26T19:53:51.656Z,64.71
2023-03-26T19:58:28.731Z,63.69
2023-03-26T20:03:03.898Z,64.75
2023-03-26T20:07:37.552Z,65.21
2023-03-26T20:36:14.561Z,65.45
2023-03-26T20:41:13.977Z,65.56
2023-03-26T20:50:23.668Z,66.89
2023-03-26T20:58:34.874Z,68.02
2023-03-26T21:01:14.444Z,69.57
2023-03-26T21:03:51.081Z,70.53
2023-03-26T21:06:27.549Z,71.30
2023-03-26T21:09:06.119Z,72.07
2023-03-26T21:12:01.896Z,72.69
2023-03-26T21:14:44.512Z,73.41
2023-03-26T21:17:24.897Z,74.09
2023-03-26T21:20:11.594Z,74.66
2023-03-26T21:22:54.971Z,75.11
2023-03-26T21:25:47.009Z,75.58
2023-03-26T21:28:42.336Z,76.03
2023-03-26T21:31:24.248Z,76.28
2023-03-26T21:34:03.961Z,76.58
2023-03-26T21:36:42.619Z,76.91
2023-03-26T21:39:20.946Z,77.27
2023-03-26T21:42:04.788Z,77.64
2023-03-26T21:44:45.115Z,77.83
2023-03-26T21:47:23.738Z,78.12
2023-03-26T21:50:02.455Z,78.31
2023-03-26T21:52:47.246Z,78.68
2023-03-26T21:55:27.921Z,78.96
2023-03-26T21:58:35.180Z,79.09
2023-03-26T22:01:33.316Z,79.12
2023-03-26T22:04:21.577Z,79.34
2023-03-26T22:07:06.947Z,79.49
2023-03-26T22:09:45.629Z,79.51
2023-03-26T22:12:22.273Z,79.59
2023-03-26T22:14:59.050Z,79.78
2023-03-26T22:17:35.973Z,79.87
2023-03-26T22:20:16.002Z,79.72
2023-03-26T22:22:53.521Z,80.09
2023-03-26T22:25:30.356Z,80.39
2023-03-26T22:28:06.784Z,80.64
2023-03-26T22:30:43.147Z,80.79
2023-03-26T22:33:19.523Z,81.04
2023-03-26T22:35:56.473Z,81.20
2023-03-26T22:38:32.963Z,81.40
2023-03-26T22:41:10.940Z,81.68
2023-03-26T22:43:47.438Z,81.87
2023-03-26T22:46:24.974Z,82.15
2023-03-26T22:49:01.684Z,82.21
2023-03-26T22:51:38.203Z,82.36
2023-03-26T22:54:14.656Z,82.52
2023-03-26T22:56:52.365Z,82.71
2023-03-26T22:59:28.915Z,82.83
2023-03-26T23:02:06.282Z,82.85
2023-03-26T23:04:42.910Z,83.05
2023-03-26T23:07:19.544Z,83.23
2023-03-26T23:09:55.800Z,83.57
2023-03-26T23:12:32.272Z,83.60
2023-03-26T23:15:10.229Z,83.69
2023-03-26T23:17:54.511Z,83.74
2023-03-26T23:20:37.661Z,84.06
2023-03-26T23:23:13.965Z,84.26
2023-03-26T23:25:51.912Z,84.33
2023-03-26T23:28:30.299Z,84.45
2023-03-26T23:31:12.267Z,84.80
2023-03-26T23:33:50.500Z,85.09
2023-03-26T23:36:27.343Z,85.22
2023-03-26T23:39:04.995Z,85.48
2023-03-26T23:41:41.339Z,85.48
2023-03-26T23:44:18.035Z,85.51
2023-03-26T23:46:58.050Z,85.75
2023-03-26T23:49:34.296Z,86.10
2023-03-26T23:52:11.783Z,86.40
2023-03-26T23:54:48.202Z,86.48
2023-03-26T23:57:24.601Z,86.38
